createdAt,value
2019-05-29T00:03:22.297Z,841.15
2019-05-29T00:08:22.276Z,848.04
2019-05-29T00:13:22.275Z,812.69
2019-05-29T00:18:22.363Z,834.89
2019-05-29T00:23:22.271Z,867.18
2019-05-29T00:28:22.285Z,945.19
2019-05-29T00:33:22.266Z,894.88
2019-05-29T00:38:22.252Z,919.97
2019-05-29T00:43:22.270Z,867.18
2019-05-29T00:48:22.223Z,894.28
2019-05-29T00:53:22.278Z,925.67
2019-05-29T00:58:22.251Z,875.08
2019-05-29T01:03:22.244Z,913.1
2019-05-29T01:08:22.577Z,1010.52
2019-05-29T01:13:23.489Z,1023.59
2019-05-29T01:18:24.479Z,964.16
2019-05-29T01:23:24.517Z,1022.81
2019-05-29T01:28:23.463Z,830.25
2019-05-29T01:33:25.769Z,743.17
2019-05-29T01:38:23.667Z,825.15
2019-05-29T01:43:23.731Z,783.8
2019-05-29T01:48:23.741Z,721.62
2019-05-29T01:53:23.827Z,708.68
2019-05-29T01:58:24.096Z,638.62
2019-05-29T02:03:24.084Z,583.18
2019-05-29T02:08:24.350Z,516.39
2019-05-29T02:13:23.920Z,499.5
2019-05-29T02:18:25.188Z,510.9
2019-05-29T02:23:24.281Z,502.86
2019-05-29T02:28:24.686Z,521.2
2019-05-29T02:33:26.680Z,508.19
2019-05-29T02:38:27.148Z,540.49
2019-05-29T02:43:27.563Z,583.69
2019-05-29T02:48:27.454Z,531.93
2019-05-29T02:53:24.550Z,564.09
2019-05-29T02:58:27.667Z,543.11
2019-05-29T03:03:27.214Z,587.78
2019-05-29T03:08:24.822Z,586.24
2019-05-29T03:13:25.539Z,607.99
2019-05-29T03:18:27.580Z,655.44
2019-05-29T03:23:24.266Z,638.62
2019-05-29T03:28:25.504Z,667.82
2019-05-29T03:33:23.932Z,658.66
2019-05-29T03:38:23.909Z,636.8
2019-05-29T03:43:31.480Z,622.64
2019-05-29T03:48:30.472Z,476.14
2019-05-29T03:53:29.356Z,481.25
2019-05-29T03:58:28.939Z,491.1
2019-05-29T04:03:29.513Z,438.82
2019-05-29T04:08:31.366Z,499.13
2019-05-29T04:13:31.331Z,391.51
2019-05-29T04:18:30.071Z,392.42
2019-05-29T04:23:30.461Z,406.18
2019-05-29T04:28:30.402Z,375.42
2019-05-29T04:33:30.591Z,345.95
2019-05-29T04:38:31.491Z,386.77
2019-05-29T04:43:28.875Z,387.89
2019-05-29T04:48:29.321Z,408.41
2019-05-29T04:53:29.397Z,388.34
2019-05-29T04:58:28.812Z,396.12
2019-05-29T05:03:29.058Z,348.87
2019-05-29T05:08:29.167Z,397.53
2019-05-29T05:13:29.453Z,381.5
2019-05-29T05:18:29.656Z,334.74
2019-05-29T05:23:29.694Z,417.29
2019-05-29T05:28:28.527Z,443.45
2019-05-29T05:33:28.534Z,504.38
2019-05-29T05:38:28.598Z,669.15
2019-05-29T05:43:28.527Z,676.56
2019-05-29T05:48:28.557Z,645.37
2019-05-29T05:53:28.529Z,564.09
2019-05-29T05:58:28.494Z,590.88
2019-05-29T06:03:28.511Z,507.04
2019-05-29T06:08:28.508Z,478.51
2019-05-29T06:13:28.521Z,465.58
2019-05-29T06:18:28.522Z,488.25
2019-05-29T06:23:28.535Z,508.96
2019-05-29T06:28:28.508Z,608.54
2019-05-29T06:33:28.777Z,651
2019-05-29T06:38:28.751Z,723.95
2019-05-29T06:43:28.795Z,739.9
2019-05-29T06:48:56.116Z,744.82
2019-05-29T06:53:28.825Z,704.96
2019-05-29T06:58:28.768Z,853.97
2019-05-29T07:03:28.761Z,918.09
2019-05-29T07:08:44.856Z,1074.28
2019-05-29T07:13:28.726Z,1093.5
2019-05-29T07:18:28.712Z,1199.82
2019-05-29T07:23:28.706Z,1280.95
2019-05-29T07:28:28.706Z,1187.11
2019-05-29T07:33:28.721Z,1238.49
2019-05-29T07:38:28.725Z,1294.51
2019-05-29T07:43:28.663Z,1351.76
2019-05-29T07:48:28.697Z,1067.46
2019-05-29T07:53:28.686Z,1014.33
2019-05-29T07:58:28.668Z,1237.35
2019-05-29T08:03:28.658Z,1712.29
2019-05-29T08:08:28.672Z,1798.13
2019-05-29T08:13:28.676Z,1621.46
2019-05-29T08:18:28.679Z,1545.98
2019-05-29T08:23:28.683Z,1577.71
2019-05-29T08:28:28.649Z,1616.59
2019-05-29T08:33:28.626Z,1455.63
2019-05-29T08:38:28.626Z,1709.02
2019-05-29T08:43:28.632Z,1719.95
2019-05-29T08:48:28.713Z,1932.47
2019-05-29T08:53:28.606Z,1844.99
2019-05-29T08:58:28.880Z,1887.72
2019-05-29T09:03:28.871Z,1875.87
2019-05-29T09:08:28.856Z,1787.38
2019-05-29T09:13:28.869Z,1949.28
2019-05-29T09:18:29.134Z,1611.74
2019-05-29T09:23:29.118Z,1572.18
2019-05-29T09:28:29.102Z,1638.25
2019-05-29T09:33:29.093Z,1594.55
2019-05-29T09:38:29.098Z,1826.2
2019-05-29T09:43:32.834Z,1866.76
2019-05-29T09:48:30.842Z,2013.47
2019-05-29T09:53:29.089Z,1779.1
2019-05-29T09:58:29.120Z,1631.29
2019-05-29T10:03:29.087Z,1426.3
2019-05-29T10:08:29.097Z,1781.46
2019-05-29T10:13:29.075Z,2050.3
2019-05-29T10:18:34.694Z,1726.57
2019-05-29T10:23:29.055Z,1268.87
2019-05-29T10:28:46.409Z,1300.77
2019-05-29T10:33:29.038Z,1441.59
2019-05-29T10:38:29.085Z,1359.96
2019-05-29T10:43:36.282Z,1290.79
2019-05-29T10:48:29.086Z,1380.9
2019-05-29T10:53:29.041Z,1398.13
2019-05-29T10:58:29.038Z,1313.48
2019-05-29T11:03:29.054Z,1401.04
2019-05-29T11:08:29.057Z,1372.45
2019-05-29T11:13:29.078Z,1383.74
2019-05-29T11:18:29.045Z,1331.68
2019-05-29T11:23:29.282Z,1229.43
2019-05-29T11:28:29.011Z,1257.01
2019-05-29T11:33:28.988Z,1279.73
2019-05-29T11:38:29.015Z,1403.97
2019-05-29T11:43:29.006Z,1333
2019-05-29T11:48:28.982Z,1148.59
2019-05-29T11:53:28.970Z,988.24
2019-05-29T11:58:33.560Z,1114.33
2019-05-29T12:03:28.974Z,1271.27
2019-05-29T12:08:29.031Z,1284.62
2019-05-29T12:13:29.075Z,1081.19
2019-05-29T12:18:28.990Z,1014.33
2019-05-29T12:23:29.464Z,996.3
2019-05-29T12:28:29.033Z,1230.56
2019-05-29T12:33:28.984Z,1191.32
2019-05-29T12:38:28.988Z,937.28
2019-05-29T12:43:30.293Z,1077.72
2019-05-29T12:48:28.955Z,1165.51
2019-05-29T12:53:33.009Z,1247.68
2019-05-29T12:58:29.015Z,1177.76
2019-05-29T13:03:29.009Z,933.38
2019-05-29T13:08:28.934Z,1000.74
2019-05-29T13:13:28.936Z,896.67
2019-05-29T13:18:28.932Z,766.82
2019-05-29T13:23:42.139Z,696.92
2019-05-29T13:28:28.935Z,736.65
2019-05-29T13:33:28.930Z,736.65
2019-05-29T13:38:29.185Z,705.7
2019-05-29T13:43:28.957Z,675.2
2019-05-29T13:48:28.904Z,602
2019-05-29T13:53:28.920Z,949.86
2019-05-29T13:58:29.143Z,1018.94
2019-05-29T14:03:29.155Z,920.6
2019-05-29T14:08:29.166Z,813.18
2019-05-29T14:13:29.228Z,735.85
2019-05-29T14:18:29.134Z,658.66
2019-05-29T14:23:29.149Z,478.85
2019-05-29T14:28:29.141Z,425.21
2019-05-29T14:33:35.211Z,380.42
2019-05-29T14:38:30.254Z,499.13
2019-05-29T14:43:29.189Z,578.66
2019-05-29T14:48:29.130Z,476.81
2019-05-29T14:53:29.118Z,597.18
2019-05-29T14:58:29.126Z,556.61
2019-05-29T15:03:29.169Z,411.91
2019-05-29T15:08:29.408Z,341.66
2019-05-29T15:13:29.371Z,384.56
2019-05-29T15:18:29.375Z,440.54
2019-05-29T15:23:29.348Z,474.45
2019-05-29T15:28:29.455Z,543.99
2019-05-29T15:33:29.342Z,736.65
2019-05-29T15:38:30.584Z,553.4
2019-05-29T15:43:29.356Z,709.43
2019-05-29T15:48:29.301Z,711.68
2019-05-29T15:53:29.332Z,871.68
2019-05-29T15:58:29.383Z,829.73
2019-05-29T16:03:29.458Z,873.38
2019-05-29T16:08:34.698Z,860.53
2019-05-29T16:13:32.987Z,936.63
2019-05-29T16:18:33.457Z,835.4
2019-05-29T16:23:38.073Z,419.89
2019-05-29T16:28:33.476Z,424.94
2019-05-29T16:33:33.448Z,438.82
2019-05-29T16:38:33.439Z,404.23
2019-05-29T16:43:33.462Z,395.43
2019-05-29T16:48:33.501Z,310.24
2019-05-29T16:53:34.026Z,289.33
2019-05-29T16:58:34.063Z,329.73
2019-05-29T17:03:34.031Z,293.7
2019-05-29T17:08:33.985Z,225.87
2019-05-29T17:13:34.054Z,229.64
2019-05-29T17:18:33.961Z,272.85
2019-05-29T17:23:33.957Z,312.29
2019-05-29T18:00:22.703Z,58.41
2019-05-29T18:05:20.976Z,205.13
2019-05-29T18:10:24.102Z,174.77
2019-05-29T18:15:21.760Z,267.77
2019-05-29T18:20:21.782Z,328.1
2019-05-29T18:25:22.018Z,364.65
2019-05-29T18:30:22.311Z,351.1
2019-05-29T18:35:21.154Z,366.27
2019-05-29T18:40:26.487Z,424.13
2019-05-29T18:45:27.851Z,474.79
2019-05-29T18:50:27.716Z,472.45
2019-05-29T18:55:25.130Z,417.03
2019-05-29T19:00:25.473Z,428.46
2019-05-29T19:05:25.735Z,456.1
2019-05-29T19:10:25.809Z,463.65
2019-05-29T19:15:26.068Z,457.96
2019-05-29T19:20:26.361Z,454.86
2019-05-29T19:25:26.829Z,466.22
2019-05-29T19:30:31.541Z,486.48
2019-05-29T19:35:25.651Z,473.12
2019-05-29T19:40:26.124Z,444.33
2019-05-29T19:45:28.678Z,435.12
2019-05-29T19:50:26.784Z,460.47
2019-05-29T19:55:25.623Z,449.08
2019-05-29T20:00:30.407Z,401.57
2019-05-29T20:05:30.729Z,439.97
2019-05-29T20:10:31.463Z,430.11
2019-05-29T20:15:30.356Z,425.48
2019-05-29T20:20:30.446Z,398.95
2019-05-29T20:25:30.902Z,418.32
2019-05-29T20:30:30.357Z,411.41
2019-05-29T20:35:30.709Z,399.66
2019-05-29T20:40:31.020Z,405.2
2019-05-29T20:45:31.588Z,383.24
2019-05-29T20:50:30.871Z,408.41
2019-05-29T20:55:31.339Z,374.99
2019-05-29T21:00:30.360Z,146.83
2019-05-29T21:05:30.331Z,171.03
2019-05-29T21:10:30.309Z,155.38
2019-05-29T21:15:30.306Z,144.31
2019-05-29T21:20:31.805Z,138.03
2019-05-29T21:25:31.789Z,135.37
2019-05-29T21:30:31.774Z,135.15
2019-05-29T21:35:32.832Z,128.73
2019-05-29T21:40:33.225Z,120.61
2019-05-29T21:45:31.786Z,117.9
2019-05-29T21:50:31.755Z,120.09
2019-05-29T21:55:31.800Z,122.36
2019-05-29T22:00:31.816Z,124.08
2019-05-29T22:05:31.807Z,118.9
2019-05-29T22:10:31.785Z,124.17
2019-05-29T22:15:31.756Z,124.17
2019-05-29T22:20:31.828Z,117.49
2019-05-29T22:25:34.331Z,112.46
2019-05-29T22:30:31.754Z,120.26
2019-05-29T22:35:31.764Z,119.32
2019-05-29T22:40:31.728Z,137.36
2019-05-29T22:45:31.778Z,132.07
2019-05-29T22:50:31.758Z,127.18
2019-05-29T22:55:31.739Z,129.63
2019-05-29T23:00:31.736Z,134.82
2019-05-29T23:05:31.732Z,136.24
2019-05-29T23:10:31.740Z,124.63
2019-05-29T23:15:31.693Z,142.36
2019-05-29T23:20:31.725Z,135.15
2019-05-29T23:25:31.689Z,143.45
2019-05-29T23:30:32.788Z,135.04
2019-05-29T23:35:31.690Z,133.96
2019-05-29T23:40:31.686Z,136.35
2019-05-29T23:45:31.667Z,139.99
2019-05-29T23:50:31.675Z,140.34
2019-05-29T23:55:31.695Z,137.81
